Terminal Aerodrome Forecast
Issued by NWS Grand Forks, ND

Home | Current Version | Previous Version | Graphics & Text | Print | Product List | Glossary On
Versions: 1 2 3 4 5 6 7 8 9 10 11 12 13 14 15 16 17 18 19 20 21 22 23
686
FTUS43 KFGF 070201 AAA
TAFFAR
TAF AMD
KFAR 070201Z 0702/0724 22012KT P6SM SCT070 BKN090
     FM070300 24018G25KT P6SM BKN025 OVC050
     FM070700 29025G32KT 4SM -SN OVC012
     FM071500 30025G40KT 2SM -SN BKN015
     FM071700 33030G45KT 1/4SM SN BLSN BKN008=

USA.gov is the U.S. government's official web portal to all federal, state and local government web resources and services.